createdAt,value
2022-10-28T00:01:37.716Z,101052.22
2022-10-28T00:04:06.669Z,101038.91
2022-10-28T00:06:38.450Z,101021.63
2022-10-28T00:09:09.682Z,101030.84
2022-10-28T00:11:40.343Z,100890.72
2022-10-28T00:14:09.594Z,101032.72
2022-10-28T00:16:39.114Z,100954.28
2022-10-28T00:19:08.836Z,101007.53
2022-10-28T00:21:40.484Z,101003.97
2022-10-28T00:24:11.071Z,100993.22
2022-10-28T00:26:43.162Z,100992.25
2022-10-28T00:29:14.676Z,100958.97
2022-10-28T00:31:44.101Z,100967.22
2022-10-28T00:34:14.764Z,100966.34
2022-10-28T00:36:46.490Z,100960.00
2022-10-28T00:39:17.031Z,100959.16
2022-10-28T00:41:48.096Z,100877.97
2022-10-28T00:44:55.968Z,100934.84
2022-10-28T00:47:41.482Z,100855.91
2022-10-28T00:50:17.769Z,100939.50
2022-10-28T00:52:52.371Z,100943.91
2022-10-28T00:55:23.236Z,100845.19
2022-10-28T00:57:59.293Z,100926.06
2022-10-28T01:00:30.676Z,100917.03
2022-10-28T01:02:59.140Z,100900.28
2022-10-28T01:05:30.354Z,100910.75
2022-10-28T01:08:06.072Z,100933.97
2022-10-28T01:10:49.798Z,100927.78
2022-10-28T01:13:35.501Z,100918.25
2022-10-28T01:16:15.271Z,100852.53
2022-10-28T01:18:50.890Z,100922.41
2022-10-28T01:21:44.667Z,100922.41
2022-10-28T01:24:30.017Z,100902.88
2022-10-28T01:27:32.803Z,100899.19
2022-10-28T01:30:15.232Z,100732.13
2022-10-28T01:32:53.703Z,100897.50
2022-10-28T01:38:15.974Z,100869.72
2022-10-28T01:40:48.115Z,100870.63
2022-10-28T01:43:22.961Z,100782.44
2022-10-28T01:45:56.555Z,100866.94
2022-10-28T01:48:34.128Z,100845.56
2022-10-28T01:51:09.700Z,100849.13
2022-10-28T01:53:41.934Z,100860.75
2022-10-28T01:56:15.587Z,100860.75
2022-10-28T01:58:46.279Z,100744.31
2022-10-28T02:01:15.376Z,100867.78
2022-10-28T02:03:47.778Z,100691.78
2022-10-28T02:06:21.763Z,100867.78
2022-10-28T02:09:06.471Z,100803.94
2022-10-28T02:11:50.144Z,100857.03
2022-10-28T02:14:35.794Z,100845.44
2022-10-28T02:17:15.617Z,100763.78
2022-10-28T02:19:53.731Z,100804.72
2022-10-28T02:22:28.683Z,100821.25
2022-10-28T02:25:04.392Z,100803.28
2022-10-28T02:27:38.889Z,100819.56
2022-10-28T02:30:12.310Z,100821.25
2022-10-28T02:32:45.225Z,100811.50
2022-10-28T02:35:20.353Z,100745.25
2022-10-28T02:37:52.154Z,100807.81
2022-10-28T02:40:24.687Z,100795.38
2022-10-28T02:42:57.835Z,100785.75
2022-10-28T02:45:32.585Z,100712.78
2022-10-28T02:48:05.679Z,100787.19
2022-10-28T02:50:39.642Z,100775.59
2022-10-28T02:53:15.562Z,100774.75
2022-10-28T02:55:47.818Z,100772.91
2022-10-28T02:58:17.052Z,100770.22
2022-10-28T03:00:46.106Z,100764.00
2022-10-28T03:03:18.080Z,100682.53
2022-10-28T03:05:47.913Z,100754.94
2022-10-28T03:08:16.360Z,100764.84
2022-10-28T03:10:44.928Z,100770.22
2022-10-28T03:13:13.160Z,100759.31
2022-10-28T03:15:41.435Z,100761.16
2022-10-28T03:18:10.526Z,100676.16
2022-10-28T03:20:41.358Z,100761.16
2022-10-28T03:23:11.417Z,100622.03
2022-10-28T03:25:39.773Z,100758.50
2022-10-28T03:28:08.401Z,100762.84
2022-10-28T03:30:38.513Z,100728.94
2022-10-28T03:33:06.961Z,100761.16
2022-10-28T03:35:35.075Z,100678.16
2022-10-28T03:38:03.823Z,100755.81
2022-10-28T03:40:34.952Z,100748.72
2022-10-28T03:43:04.477Z,100686.63
2022-10-28T03:45:32.569Z,100670.94
2022-10-28T03:48:01.873Z,100742.38
2022-10-28T03:50:29.881Z,100722.97
2022-10-28T03:52:57.854Z,100675.88
2022-10-28T03:55:25.992Z,100751.25
2022-10-28T03:57:55.810Z,100748.72
2022-10-28T04:00:24.075Z,100750.44
2022-10-28T04:02:52.831Z,100750.44
2022-10-28T04:05:21.841Z,100598.56
2022-10-28T04:07:49.899Z,100750.13
2022-10-28T04:10:18.383Z,100751.81
2022-10-28T04:12:46.480Z,100653.59
2022-10-28T04:15:16.773Z,100758.19
2022-10-28T04:17:45.681Z,100594.31
2022-10-28T04:20:14.428Z,100738.97
2022-10-28T04:22:42.939Z,100727.22
2022-10-28T04:25:12.837Z,100622.13
2022-10-28T04:27:40.956Z,100726.09
2022-10-28T04:30:10.497Z,100571.75
2022-10-28T04:32:39.961Z,100641.56
2022-10-28T04:35:09.974Z,100590.09
2022-10-28T04:37:39.491Z,100698.94
2022-10-28T04:40:13.283Z,100652.13
2022-10-28T04:42:43.984Z,100562.72
2022-10-28T04:45:15.199Z,100728.63
2022-10-28T04:47:48.182Z,100718.72
2022-10-28T04:50:25.219Z,100712.50
2022-10-28T04:52:53.519Z,100637.47
2022-10-28T04:55:22.422Z,100709.97
2022-10-28T04:58:01.470Z,100712.50
2022-10-28T05:00:39.738Z,100711.66
2022-10-28T05:03:09.556Z,100725.94
2022-10-28T05:05:41.024Z,100723.25
2022-10-28T05:08:10.619Z,100710.81
2022-10-28T05:10:38.830Z,100715.19
2022-10-28T05:13:07.176Z,100707.44
2022-10-28T05:15:35.359Z,100714.50
2022-10-28T05:18:09.030Z,100675.22
2022-10-28T05:20:41.711Z,100643.13
2022-10-28T05:23:09.959Z,100709.97
2022-10-28T05:25:38.793Z,100707.44
2022-10-28T05:28:07.626Z,100708.97
2022-10-28T05:30:37.065Z,100659.16
2022-10-28T05:33:06.122Z,100709.13
2022-10-28T05:35:36.151Z,100552.00
2022-10-28T05:38:04.274Z,100698.66
2022-10-28T05:40:34.544Z,100698.38
2022-10-28T05:43:06.656Z,100709.13
2022-10-28T05:45:34.649Z,100693.56
2022-10-28T05:48:04.187Z,100702.06
2022-10-28T05:50:32.620Z,100707.44
2022-10-28T05:53:02.422Z,100639.69
2022-10-28T05:55:31.737Z,100707.44
2022-10-28T05:58:00.523Z,100712.81
2022-10-28T06:00:29.090Z,100611.22
2022-10-28T06:03:03.894Z,100707.44
2022-10-28T06:05:32.325Z,100637.13
2022-10-28T06:08:02.001Z,100715.50
2022-10-28T06:10:30.268Z,100712.81
2022-10-28T06:12:57.249Z,100713.63
2022-10-28T06:15:25.913Z,100721.53
2022-10-28T06:17:54.498Z,100717.19
2022-10-28T06:20:22.719Z,100719.88
2022-10-28T06:22:53.234Z,100723.41
2022-10-28T06:25:24.258Z,100560.03
2022-10-28T06:27:53.895Z,100730.63
2022-10-28T06:30:22.426Z,100726.91
2022-10-28T06:32:50.916Z,100728.94
2022-10-28T06:35:20.844Z,100654.41
2022-10-28T06:37:54.991Z,100736.00
2022-10-28T06:40:26.574Z,100739.69
2022-10-28T06:42:58.343Z,100750.44
2022-10-28T06:45:26.971Z,100754.09
2022-10-28T06:47:59.139Z,100743.34
2022-10-28T06:50:27.601Z,100750.44
2022-10-28T06:52:58.356Z,100757.78
2022-10-28T06:55:28.641Z,100769.25
2022-10-28T06:58:01.058Z,100772.91
2022-10-28T07:03:00.153Z,100780.97
2022-10-28T07:05:30.120Z,100716.88
2022-10-28T07:07:58.154Z,100783.63
2022-10-28T07:10:27.471Z,100786.31
2022-10-28T07:12:55.711Z,100797.94
2022-10-28T07:15:23.957Z,100799.75
2022-10-28T07:17:55.112Z,100807.81
2022-10-28T07:20:23.345Z,100806.13
2022-10-28T07:22:57.214Z,100791.69
2022-10-28T07:25:25.202Z,100793.41
2022-10-28T07:27:55.718Z,100791.69
2022-10-28T07:30:24.209Z,100797.06
2022-10-28T07:32:52.754Z,100798.94
2022-10-28T07:35:21.426Z,100804.41
2022-10-28T07:37:49.524Z,100728.19
2022-10-28T07:40:18.079Z,100729.88
2022-10-28T07:42:46.001Z,100777.00
2022-10-28T07:45:16.769Z,100807.81
2022-10-28T07:47:45.265Z,100793.41
2022-10-28T07:50:17.155Z,100790.03
2022-10-28T07:52:46.670Z,100801.63
2022-10-28T07:55:15.754Z,100801.03
2022-10-28T07:57:43.925Z,100811.50
2022-10-28T08:00:12.769Z,100811.50
2022-10-28T08:02:42.774Z,100809.78
2022-10-28T08:05:11.378Z,100795.94
2022-10-28T08:07:40.794Z,100816.00
2022-10-28T08:10:10.376Z,100826.75
2022-10-28T08:12:38.529Z,100830.31
2022-10-28T08:15:09.780Z,100835.56
2022-10-28T08:17:38.457Z,100835.56
2022-10-28T08:20:08.838Z,100841.78
2022-10-28T08:22:36.877Z,100836.41
2022-10-28T08:25:05.472Z,100830.19
2022-10-28T08:27:34.320Z,100834.69
2022-10-28T08:30:02.678Z,100829.31
2022-10-28T08:32:30.729Z,100823.94
2022-10-28T08:34:59.040Z,100827.63
2022-10-28T08:37:29.700Z,100825.66
2022-10-28T08:39:58.597Z,100834.56
2022-10-28T08:42:37.058Z,100813.44
2022-10-28T08:45:27.173Z,100820.28
2022-10-28T08:48:07.965Z,100821.97
2022-10-28T08:50:45.320Z,100814.91
2022-10-28T08:53:20.965Z,100823.94
2022-10-28T08:55:52.784Z,100834.69
2022-10-28T08:58:26.359Z,100829.31
2022-10-28T09:00:56.795Z,100829.31
2022-10-28T09:03:28.795Z,100834.94
2022-10-28T09:06:04.235Z,100674.25
2022-10-28T09:08:38.013Z,100841.06
2022-10-28T09:11:34.070Z,100769.59
2022-10-28T09:14:16.984Z,100806.44
2022-10-28T09:16:48.991Z,100851.06
2022-10-28T09:19:28.157Z,100861.81
2022-10-28T09:22:10.689Z,100867.19
2022-10-28T09:24:47.337Z,100862.81
2022-10-28T09:27:24.387Z,100869.47
2022-10-28T09:30:03.350Z,100873.44
2022-10-28T09:32:41.563Z,100794.47
2022-10-28T09:35:13.868Z,100870.88
2022-10-28T09:37:49.151Z,100769.72
2022-10-28T09:40:23.433Z,100787.97
2022-10-28T09:43:00.979Z,100881.47
2022-10-28T09:45:33.043Z,100883.59
2022-10-28T09:48:06.268Z,100812.94
2022-10-28T09:50:34.890Z,100869.47
2022-10-28T09:53:11.088Z,100877.94
2022-10-28T09:55:40.881Z,100872.56
2022-10-28T09:58:09.529Z,100861.72
2022-10-28T10:00:38.738Z,100813.09
2022-10-28T10:03:08.552Z,100879.66
2022-10-28T10:05:42.781Z,100879.66
2022-10-28T10:08:14.509Z,100882.34
2022-10-28T10:10:50.324Z,100782.72
2022-10-28T10:13:22.769Z,100872.84
2022-10-28T10:15:56.851Z,100872.56
2022-10-28T10:18:29.388Z,100788.69
2022-10-28T10:20:59.392Z,100871.59
2022-10-28T10:23:32.821Z,100863.53
2022-10-28T10:26:09.567Z,100857.31
2022-10-28T10:28:44.963Z,100859.00
2022-10-28T10:31:20.780Z,100868.91
2022-10-28T10:33:53.034Z,100863.28
2022-10-28T10:36:23.926Z,100785.56
2022-10-28T10:38:55.808Z,100863.28
2022-10-28T10:41:39.212Z,100877.69
2022-10-28T10:44:32.110Z,100851.94
2022-10-28T10:47:21.366Z,100696.28
2022-10-28T10:49:52.411Z,100863.28
2022-10-28T10:52:26.490Z,100768.88
2022-10-28T10:55:05.118Z,100752.19
2022-10-28T10:57:35.599Z,100779.91
2022-10-28T11:00:05.280Z,100855.22
2022-10-28T11:02:37.316Z,100852.53
2022-10-28T11:05:09.097Z,100792.03
2022-10-28T11:07:40.494Z,100866.78
2022-10-28T11:10:22.656Z,100792.34
2022-10-28T11:12:56.022Z,100868.66
2022-10-28T11:15:30.068Z,100868.66
2022-10-28T11:18:02.506Z,100874.03
2022-10-28T11:20:47.314Z,100874.03
2022-10-28T11:23:38.905Z,100868.06
2022-10-28T11:26:12.497Z,100714.91
2022-10-28T11:29:07.701Z,100799.28
2022-10-28T11:32:20.526Z,100873.16
2022-10-28T11:35:14.078Z,100858.88
2022-10-28T11:37:58.776Z,100859.88
2022-10-28T11:40:38.254Z,100849.13
2022-10-28T11:43:25.487Z,100686.41
2022-10-28T11:46:05.237Z,100861.56
2022-10-28T11:48:46.276Z,100861.56
2022-10-28T11:51:27.263Z,100867.78
2022-10-28T11:54:22.335Z,100824.53
2022-10-28T11:56:55.698Z,100850.81
2022-10-28T11:59:47.269Z,100735.13
2022-10-28T12:02:37.598Z,100847.16
2022-10-28T12:05:19.035Z,100834.69
2022-10-28T12:08:15.653Z,100758.44
2022-10-28T12:10:57.600Z,100847.16
2022-10-28T12:13:34.551Z,100834.69
2022-10-28T12:16:09.206Z,100824.19
2022-10-28T12:18:48.111Z,100825.66
2022-10-28T12:21:29.545Z,100827.63
2022-10-28T12:24:00.280Z,100835.56
2022-10-28T12:26:37.415Z,100815.75
2022-10-28T12:29:09.861Z,100821.97
2022-10-28T12:31:45.588Z,100737.38
2022-10-28T12:34:21.796Z,100832.72
2022-10-28T12:36:57.674Z,100825.66
2022-10-28T12:42:33.308Z,100826.50
2022-10-28T12:45:07.992Z,100827.34
2022-10-28T12:47:44.148Z,100823.81
2022-10-28T12:50:22.514Z,100820.97
2022-10-28T12:53:00.534Z,100811.22
2022-10-28T12:55:35.150Z,100813.91
2022-10-28T12:58:07.847Z,100812.22
2022-10-28T13:00:41.675Z,100821.69
2022-10-28T13:03:14.303Z,100812.63
2022-10-28T13:05:50.002Z,100820.53
2022-10-28T13:08:38.275Z,100777.44
2022-10-28T13:11:42.496Z,100817.69
2022-10-28T13:14:24.025Z,100732.69
2022-10-28T13:17:11.968Z,100814.00
2022-10-28T13:19:54.511Z,100791.56
2022-10-28T13:22:39.499Z,100653.50
2022-10-28T13:25:23.795Z,100806.94
2022-10-28T13:27:59.835Z,100814.31
2022-10-28T13:30:31.712Z,100811.75
2022-10-28T13:33:06.845Z,100812.31
2022-10-28T13:35:36.511Z,100814.00
2022-10-28T13:38:15.563Z,100710.09
2022-10-28T13:41:21.021Z,100814.00
2022-10-28T13:44:15.331Z,100808.63
2022-10-28T13:47:20.943Z,100801.56
2022-10-28T13:50:34.245Z,100800.19
2022-10-28T13:53:42.351Z,100800.56
2022-10-28T13:56:40.719Z,100803.56
2022-10-28T13:59:32.239Z,100801.88
2022-10-28T14:02:34.413Z,100787.91
2022-10-28T14:05:07.604Z,100722.34
2022-10-28T14:07:38.408Z,100644.84
2022-10-28T14:10:27.923Z,100796.50
2022-10-28T14:13:01.220Z,100798.19
2022-10-28T14:15:32.970Z,100710.91
2022-10-28T14:18:15.927Z,100721.94
2022-10-28T14:21:01.771Z,100779.84
2022-10-28T14:24:08.327Z,100782.06
2022-10-28T14:27:06.957Z,100794.81
2022-10-28T14:29:44.950Z,100749.56
2022-10-28T14:32:41.500Z,100782.91
2022-10-28T14:35:25.526Z,100696.78
2022-10-28T14:38:28.247Z,100759.19
2022-10-28T14:41:31.679Z,100740.81
2022-10-28T14:44:18.317Z,100755.19
2022-10-28T14:47:04.932Z,100726.97
2022-10-28T14:49:36.622Z,100765.53
2022-10-28T14:52:13.525Z,100759.16
2022-10-28T14:54:49.786Z,100764.41
2022-10-28T14:57:22.413Z,100605.34
2022-10-28T14:59:56.025Z,100767.94
2022-10-28T15:02:30.420Z,100747.88
2022-10-28T15:05:04.181Z,100746.72
2022-10-28T15:07:37.827Z,100705.25
2022-10-28T15:10:15.504Z,100692.66
2022-10-28T15:12:46.686Z,100593.91
2022-10-28T15:15:20.820Z,100758.59
2022-10-28T15:17:51.684Z,100753.22
2022-10-28T15:20:28.973Z,100677.84
2022-10-28T15:23:14.592Z,100745.00
2022-10-28T15:25:52.604Z,100742.47
2022-10-28T15:28:28.337Z,100742.47
2022-10-28T15:30:57.654Z,100665.13
2022-10-28T15:33:33.603Z,100742.47
2022-10-28T15:36:18.300Z,100723.25
2022-10-28T15:38:52.657Z,100736.22
2022-10-28T15:41:47.924Z,100739.06
2022-10-28T15:44:40.172Z,100738.75
2022-10-28T15:47:30.295Z,100731.16
2022-10-28T15:50:03.259Z,100730.31
2022-10-28T15:52:36.864Z,100728.63
2022-10-28T15:55:35.886Z,100731.00
2022-10-28T15:58:38.115Z,100715.88
2022-10-28T16:01:12.138Z,100707.13
2022-10-28T16:03:45.518Z,100560.13
2022-10-28T16:06:27.287Z,100680.56
2022-10-28T16:09:19.677Z,100628.34
2022-10-28T16:11:57.795Z,100692.69
2022-10-28T16:14:36.420Z,100687.31
2022-10-28T16:17:11.509Z,100592.25
2022-10-28T16:19:43.961Z,100602.09
2022-10-28T16:22:16.603Z,100669.53
2022-10-28T16:24:44.601Z,100656.75
2022-10-28T16:27:22.481Z,100669.19
2022-10-28T16:29:51.125Z,100674.56
2022-10-28T16:32:35.465Z,100671.88
2022-10-28T16:35:06.491Z,100662.13
2022-10-28T16:37:41.829Z,100637.03
2022-10-28T16:43:02.982Z,100613.94
2022-10-28T16:45:32.350Z,100689.00
2022-10-28T16:48:00.705Z,100689.00
2022-10-28T16:50:30.016Z,100685.31
2022-10-28T16:53:01.418Z,100530.25
2022-10-28T16:55:32.900Z,100645.50
2022-10-28T16:58:05.896Z,100668.22
2022-10-28T17:00:34.677Z,100665.53
2022-10-28T17:03:05.490Z,100675.44
2022-10-28T17:05:34.332Z,100682.63
2022-10-28T17:08:09.878Z,100585.47
2022-10-28T17:10:42.258Z,100674.91
2022-10-28T17:13:19.530Z,100666.84
2022-10-28T17:15:55.640Z,100649.84
2022-10-28T17:18:24.335Z,100667.50
2022-10-28T17:21:01.509Z,100589.50
2022-10-28T17:23:32.595Z,100660.47
2022-10-28T17:26:02.411Z,100644.63
2022-10-28T17:28:30.617Z,100655.69
2022-10-28T17:31:07.237Z,100659.31
2022-10-28T17:33:35.541Z,100655.59
2022-10-28T17:36:05.439Z,100535.13
2022-10-28T17:38:38.059Z,100656.31
2022-10-28T17:41:08.427Z,100647.41
2022-10-28T17:43:36.789Z,100652.78
2022-10-28T17:46:05.793Z,100500.25
2022-10-28T17:48:34.143Z,100644.03
2022-10-28T17:51:02.292Z,100643.72
2022-10-28T17:53:36.140Z,100634.59
2022-10-28T17:56:07.958Z,100643.59
2022-10-28T17:58:37.261Z,100632.69
2022-10-28T18:01:07.713Z,100640.34
2022-10-28T18:03:39.368Z,100647.09
2022-10-28T18:06:11.462Z,100631.41
2022-10-28T18:08:43.256Z,100654.19
2022-10-28T18:11:15.614Z,100644.25
2022-10-28T18:13:49.166Z,100658.69
2022-10-28T18:16:20.562Z,100647.94
2022-10-28T18:18:51.122Z,100493.88
2022-10-28T18:21:20.519Z,100629.59
2022-10-28T18:23:53.279Z,100629.59
2022-10-28T18:26:24.300Z,100631.28
2022-10-28T18:28:56.507Z,100631.28
2022-10-28T18:31:32.283Z,100624.22
2022-10-28T18:34:02.532Z,100626.91
2022-10-28T18:36:34.711Z,100539.34
2022-10-28T18:39:03.810Z,100466.09
2022-10-28T18:41:38.231Z,100601.63
2022-10-28T18:44:08.190Z,100608.09
2022-10-28T18:46:38.896Z,100616.88
2022-10-28T18:49:09.396Z,100511.19
2022-10-28T18:51:39.501Z,100613.47
2022-10-28T18:54:07.931Z,100452.59
2022-10-28T18:56:42.533Z,100615.16
2022-10-28T18:59:15.225Z,100553.72
2022-10-28T19:01:47.200Z,100599.88
2022-10-28T19:04:17.051Z,100593.50
2022-10-28T19:06:46.961Z,100528.69
2022-10-28T19:09:16.057Z,100583.75
2022-10-28T19:11:46.741Z,100598.19
2022-10-28T19:14:15.231Z,100512.19
2022-10-28T19:16:43.338Z,100469.56
2022-10-28T19:19:11.772Z,100549.09
2022-10-28T19:21:40.152Z,100580.22
2022-10-28T19:24:09.052Z,100584.91
2022-10-28T19:26:37.010Z,100599.03
2022-10-28T19:29:14.807Z,100586.59
2022-10-28T19:31:46.156Z,100588.28
2022-10-28T19:34:15.383Z,100584.63
2022-10-28T19:36:43.434Z,100561.91
2022-10-28T19:39:11.388Z,100570.47
2022-10-28T19:41:41.891Z,100500.59
2022-10-28T19:44:14.387Z,100563.41
2022-10-28T19:46:47.725Z,100574.16
2022-10-28T19:49:25.606Z,100560.72
2022-10-28T19:51:56.035Z,100566.56
2022-10-28T19:54:28.572Z,100569.63
2022-10-28T19:56:57.363Z,100570.47
2022-10-28T19:59:27.871Z,100491.84
2022-10-28T20:01:57.307Z,100547.31
2022-10-28T20:04:28.232Z,100497.47
2022-10-28T20:07:00.176Z,100567.09
2022-10-28T20:09:29.207Z,100550.97
2022-10-28T20:11:57.676Z,100467.84
2022-10-28T20:14:30.140Z,100535.75
2022-10-28T20:17:06.724Z,100520.44
2022-10-28T20:19:40.106Z,100520.44
2022-10-28T20:22:11.923Z,100518.72
2022-10-28T20:24:41.055Z,100450.81
2022-10-28T20:27:11.491Z,100509.69
2022-10-28T20:29:49.440Z,100508.81
2022-10-28T20:32:27.598Z,100481.09
2022-10-28T20:34:57.186Z,100419.06
2022-10-28T20:37:28.233Z,100445.50
2022-10-28T20:39:59.048Z,100420.47
2022-10-28T20:42:30.035Z,100344.31
2022-10-28T20:45:00.965Z,100402.19
2022-10-28T20:47:33.319Z,100317.47
2022-10-28T20:50:02.108Z,100392.28
2022-10-28T20:52:32.067Z,100386.06
2022-10-28T20:55:02.466Z,100386.06
2022-10-28T20:57:32.576Z,100388.59
2022-10-28T21:00:08.145Z,100353.69
2022-10-28T21:02:37.191Z,100373.97
2022-10-28T21:05:07.520Z,100374.56
2022-10-28T21:07:38.991Z,100380.16
2022-10-28T21:10:10.122Z,100346.91
2022-10-28T21:12:40.762Z,100287.44
2022-10-28T21:15:14.193Z,100371.59
2022-10-28T21:17:47.844Z,100378.22
2022-10-28T21:20:18.562Z,100385.69
2022-10-28T21:22:47.492Z,100319.50
2022-10-28T21:25:20.562Z,100416.94
2022-10-28T21:27:51.491Z,100341.97
2022-10-28T21:30:21.014Z,100426.84
2022-10-28T21:32:58.318Z,100365.03
2022-10-28T21:35:29.145Z,100466.28
2022-10-28T21:38:00.960Z,100471.50
2022-10-28T21:40:29.366Z,100471.81
2022-10-28T21:42:58.483Z,100459.09
2022-10-28T21:45:28.565Z,100464.63
2022-10-28T21:47:58.772Z,100461.94
2022-10-28T21:50:29.008Z,100459.94
2022-10-28T21:52:57.248Z,100366.50
2022-10-28T21:55:41.553Z,100380.38
2022-10-28T21:58:15.316Z,100349.84
2022-10-28T22:00:46.980Z,100447.47
2022-10-28T22:03:16.087Z,100436.72
2022-10-28T22:05:53.315Z,100438.44
2022-10-28T22:08:25.889Z,100433.06
2022-10-28T22:11:01.714Z,100430.00
2022-10-28T22:13:30.238Z,100280.25
2022-10-28T22:16:01.439Z,100425.31
2022-10-28T22:18:37.398Z,100421.47
2022-10-28T22:21:14.519Z,100424.31
2022-10-28T22:23:46.006Z,100418.94
2022-10-28T22:26:17.794Z,100418.94
2022-10-28T22:28:46.784Z,100413.56
2022-10-28T22:31:27.115Z,100403.97
2022-10-28T22:33:59.005Z,100408.19
2022-10-28T22:36:37.803Z,100393.66
2022-10-28T22:39:09.154Z,100331.53
2022-10-28T22:41:40.459Z,100380.84
2022-10-28T22:44:19.059Z,100333.91
2022-10-28T22:46:51.078Z,100310.28
2022-10-28T22:49:22.834Z,100399.44
2022-10-28T22:51:55.002Z,100406.50
2022-10-28T22:54:28.187Z,100410.19
2022-10-28T22:56:58.051Z,100348.00
2022-10-28T22:59:33.860Z,100416.41
2022-10-28T23:02:03.711Z,100422.63
2022-10-28T23:04:32.290Z,100411.88
2022-10-28T23:07:04.159Z,100416.94
2022-10-28T23:09:34.244Z,100408.19
2022-10-28T23:12:06.541Z,100410.72
2022-10-28T23:14:37.951Z,100252.59
2022-10-28T23:17:14.118Z,100402.50
2022-10-28T23:19:50.429Z,100402.50
2022-10-28T23:22:21.286Z,100397.97
2022-10-28T23:24:59.151Z,100321.16
2022-10-28T23:27:28.947Z,100385.91
2022-10-28T23:30:04.391Z,100391.75
2022-10-28T23:32:38.387Z,100326.22
2022-10-28T23:35:11.228Z,100398.81
2022-10-28T23:37:39.899Z,100391.75
2022-10-28T23:40:19.859Z,100390.41
2022-10-28T23:42:50.017Z,100240.50
2022-10-28T23:45:22.596Z,100402.50
2022-10-28T23:47:57.185Z,100406.22
2022-10-28T23:50:29.644Z,100325.88
2022-10-28T23:53:09.443Z,100402.50
2022-10-28T23:55:53.386Z,100409.47
2022-10-28T23:58:26.823Z,100416.94
